Pagina principale
METAR-TAF:

METAR-TAF

Aeroporti :

Kélibia, Tunisia

latitudine: 36-51N, longitudine: 011-05E, altezza: 29 m

Osservazione

Il bollettino è stato emesso 35 minuti fa, alle 20:00 UTC
Vento 10 kt da ovest/nord-ovest con raffiche fino a 20 kt, variando fra sud-ovest e nord
Temperature 25°C
Umidità 65%
Pressione 1011 hPa

METAR: DTTL 252000Z AUTO 30010G20KT 220V360 NCD 25/18 Q1011

Ora: 21:35 (20:35 UTC)


TAF: mancante

Osservazioni e previsioni meteorologiche di più di 4000 aeroporti (messaggi METAR e TAF).

Le stazioni disponibili sono rappresentate dai dischi gialli e rossi sulla carta.

Puntare il mouse per vedere il nome della stazione.

Clicca sopra per visualizzare le osservazioni e previsioni meteorologiche.

Per cambiare la mappa : fare clic sui pulsanti verdi con una croce nera per ingrandire, il pulsante verde con un trattino per diminuire, o sulla freccia verde per le mappe adiacenti.


METAR-TAF: